createdAt,value
2023-05-14T00:00:58.587Z,97200.44
2023-05-14T00:03:26.337Z,97189.84
2023-05-14T00:05:53.969Z,97184.13
2023-05-14T00:08:21.599Z,97187.66
2023-05-14T00:10:50.522Z,97179.78
2023-05-14T00:13:19.284Z,97183.63
2023-05-14T00:15:46.857Z,97191.91
2023-05-14T00:18:14.729Z,97189.34
2023-05-14T00:20:42.962Z,97189.38
2023-05-14T00:23:11.706Z,97187.47
2023-05-14T00:25:39.284Z,97190.91
2023-05-14T00:28:08.260Z,97185.56
2023-05-14T00:30:35.851Z,97182.88
2023-05-14T00:33:03.907Z,97182.88
2023-05-14T00:35:31.891Z,97176.38
2023-05-14T00:37:59.507Z,97171.41
2023-05-14T00:40:27.948Z,97174.47
2023-05-14T00:42:56.912Z,97170.22
2023-05-14T00:45:26.455Z,97164.88
2023-05-14T00:47:54.903Z,97160.28
2023-05-14T00:50:23.394Z,97161.06
2023-05-14T00:52:51.270Z,97153.03
2023-05-14T00:55:21.127Z,97155.31
2023-05-14T00:57:50.646Z,97160.25
2023-05-14T01:00:18.772Z,97158.75
2023-05-14T01:02:48.464Z,97157.22
2023-05-14T01:05:16.582Z,97154.50
2023-05-14T01:07:57.476Z,97142.66
2023-05-14T01:10:32.462Z,97146.91
2023-05-14T01:13:08.310Z,97153.78
2023-05-14T01:15:39.265Z,97144.97
2023-05-14T01:18:11.790Z,97149.22
2023-05-14T01:20:40.499Z,97144.63
2023-05-14T01:23:09.436Z,97146.13
2023-05-14T01:25:37.363Z,97135.41
2023-05-14T01:28:11.803Z,97141.91
2023-05-14T01:30:46.234Z,97131.56
2023-05-14T01:33:17.956Z,97138.84
2023-05-14T01:35:48.463Z,97135.41
2023-05-14T01:38:19.928Z,97133.13
2023-05-14T01:40:49.558Z,97137.34
2023-05-14T01:43:19.372Z,97144.97
2023-05-14T01:45:47.196Z,97140.75
2023-05-14T01:48:15.046Z,97140.41
2023-05-14T01:50:42.679Z,97131.59
2023-05-14T01:53:10.308Z,97130.81
2023-05-14T01:55:40.926Z,97131.59
2023-05-14T01:58:08.503Z,97141.50
2023-05-14T02:00:36.178Z,97135.38
2023-05-14T02:03:04.002Z,97134.63
2023-05-14T02:05:31.652Z,97133.84
2023-05-14T02:07:59.373Z,97139.22
2023-05-14T02:10:28.341Z,97133.47
2023-05-14T02:12:58.768Z,97128.13
2023-05-14T02:15:26.308Z,97133.91
2023-05-14T02:17:53.933Z,97126.56
2023-05-14T02:20:23.374Z,97125.81
2023-05-14T02:22:51.478Z,97119.25
2023-05-14T02:25:19.220Z,97126.97
2023-05-14T02:27:47.591Z,97119.84
2023-05-14T02:30:18.290Z,97118.78
2023-05-14T02:32:46.948Z,97114.09
2023-05-14T02:35:14.618Z,97119.09
2023-05-14T02:37:42.460Z,97116.13
2023-05-14T02:40:13.549Z,97116.41
2023-05-14T02:42:43.553Z,97111.84
2023-05-14T02:45:11.565Z,97105.16
2023-05-14T02:47:40.428Z,97106.00
2023-05-14T02:50:09.213Z,97102.41
2023-05-14T02:52:37.065Z,97094.69
2023-05-14T02:55:06.505Z,97104.41
2023-05-14T02:57:34.053Z,97098.19
2023-05-14T03:00:01.718Z,97100.97
2023-05-14T03:02:29.743Z,97098.66
2023-05-14T03:04:59.204Z,97092.06
2023-05-14T03:07:26.906Z,97092.94
2023-05-14T03:09:54.654Z,97099.81
2023-05-14T03:12:22.290Z,97089.03
2023-05-14T03:14:49.984Z,97080.69
2023-05-14T03:17:17.580Z,97086.38
2023-05-14T03:19:45.185Z,97088.81
2023-05-14T03:22:14.229Z,97095.47
2023-05-14T03:24:44.149Z,97089.47
2023-05-14T03:27:11.985Z,97093.88
2023-05-14T03:29:42.234Z,97091.84
2023-05-14T03:32:09.942Z,97100.28
2023-05-14T03:34:37.696Z,97094.75
2023-05-14T03:37:05.476Z,97094.00
2023-05-14T03:39:35.721Z,97094.00
2023-05-14T03:42:03.722Z,97092.50
2023-05-14T03:44:31.390Z,97088.81
2023-05-14T03:46:58.994Z,97091.59
2023-05-14T03:49:26.800Z,97092.94
2023-05-14T03:51:54.404Z,97092.53
2023-05-14T03:54:22.055Z,97095.19
2023-05-14T03:56:51.315Z,97093.94
2023-05-14T03:59:19.228Z,97090.09
2023-05-14T04:01:46.823Z,97094.19
2023-05-14T04:04:14.483Z,97094.81
2023-05-14T04:06:42.348Z,97087.56
2023-05-14T04:09:10.149Z,97079.66
2023-05-14T04:11:38.323Z,97086.88
2023-05-14T04:14:08.414Z,97077.38
2023-05-14T04:16:35.985Z,97080.88
2023-05-14T04:19:04.225Z,97080.88
2023-05-14T04:21:31.928Z,97076.44
2023-05-14T04:23:59.518Z,97079.47
2023-05-14T04:26:27.280Z,97076.66
2023-05-14T04:28:54.927Z,97082.47
2023-05-14T04:31:24.131Z,97083.97
2023-05-14T04:33:51.743Z,97086.25
2023-05-14T04:36:19.333Z,97082.75
2023-05-14T04:38:47.302Z,97087.06
2023-05-14T04:41:14.883Z,97093.97
2023-05-14T04:43:42.491Z,97091.31
2023-05-14T04:46:10.111Z,97094.53
2023-05-14T04:48:39.027Z,97094.31
2023-05-14T04:51:07.259Z,97101.66
2023-05-14T04:53:34.914Z,97100.09
2023-05-14T04:56:02.730Z,97099.41
2023-05-14T04:58:34.600Z,97108.25
2023-05-14T05:01:04.413Z,97109.38
2023-05-14T05:03:32.245Z,97109.38
2023-05-14T05:06:01.425Z,97109.72
2023-05-14T05:08:29.034Z,97109.66
2023-05-14T05:10:58.962Z,97114.69
2023-05-14T05:13:28.381Z,97099.25
2023-05-14T05:15:56.000Z,97110.38
2023-05-14T05:18:23.890Z,97107.34
2023-05-14T05:20:51.631Z,97108.91
2023-05-14T05:23:20.591Z,97112.75
2023-05-14T05:25:48.771Z,97121.22
2023-05-14T05:28:16.726Z,97118.53
2023-05-14T05:30:45.155Z,97108.03
2023-05-14T05:33:12.923Z,97102.41
2023-05-14T05:35:42.806Z,97106.91
2023-05-14T05:38:10.414Z,97105.75
2023-05-14T05:40:39.662Z,97111.06
2023-05-14T05:43:07.308Z,97103.19
2023-05-14T05:45:37.248Z,97104.94
2023-05-14T05:48:05.419Z,97109.53
2023-05-14T05:50:33.305Z,97104.97
2023-05-14T05:53:00.945Z,97096.38
2023-05-14T05:55:29.425Z,97105.69
2023-05-14T05:57:58.323Z,97110.75
2023-05-14T06:00:26.039Z,97113.19
2023-05-14T06:02:53.983Z,97107.13
2023-05-14T06:05:21.655Z,97111.63
2023-05-14T06:07:49.363Z,97116.63
2023-05-14T06:10:17.074Z,97117.47
2023-05-14T06:12:44.704Z,97114.50
2023-05-14T06:15:14.456Z,97122.09
2023-05-14T06:17:42.136Z,97113.63
2023-05-14T06:20:10.906Z,97108.81
2023-05-14T06:22:39.574Z,97107.41
2023-05-14T06:25:08.189Z,97106.38
2023-05-14T06:27:36.306Z,97104.72
2023-05-14T06:30:06.190Z,97105.38
2023-05-14T06:32:36.837Z,97113.28
2023-05-14T06:35:05.344Z,97109.97
2023-05-14T06:37:35.531Z,97116.09
2023-05-14T06:40:07.805Z,97114.66
2023-05-14T06:42:35.391Z,97124.94
2023-05-14T06:45:03.446Z,97127.69
2023-05-14T06:47:32.351Z,97129.69
2023-05-14T06:50:04.578Z,97131.16
2023-05-14T06:52:32.220Z,97134.50
2023-05-14T06:55:00.177Z,97129.53
2023-05-14T06:57:27.905Z,97135.75
2023-05-14T06:59:55.567Z,97138.75
2023-05-14T07:02:23.300Z,97133.50
2023-05-14T07:04:50.900Z,97138.84
2023-05-14T07:07:19.955Z,97140.31
2023-05-14T07:09:47.725Z,97135.91
2023-05-14T07:12:16.419Z,97138.13
2023-05-14T07:14:46.181Z,97134.28
2023-05-14T07:17:14.983Z,97128.59
2023-05-14T07:19:42.577Z,97123.97
2023-05-14T07:22:10.346Z,97111.94
2023-05-14T07:24:43.633Z,97111.88
2023-05-14T07:27:11.386Z,97111.31
2023-05-14T07:29:39.155Z,97111.28
2023-05-14T07:32:06.792Z,97121.84
2023-05-14T07:34:34.888Z,97110.78
2023-05-14T07:37:03.083Z,97110.22
2023-05-14T07:39:30.705Z,97102.47
2023-05-14T07:42:02.431Z,97100.13
2023-05-14T07:44:30.511Z,97104.84
2023-05-14T07:46:58.454Z,97104.22
2023-05-14T07:49:26.118Z,97100.84
2023-05-14T07:51:53.678Z,97096.34
2023-05-14T07:54:21.396Z,97094.69
2023-05-14T07:56:48.945Z,97094.50
2023-05-14T07:59:25.648Z,97098.69
2023-05-14T08:01:53.240Z,97098.06
2023-05-14T08:04:20.893Z,97096.72
2023-05-14T08:06:49.467Z,97101.72
2023-05-14T08:09:17.166Z,97091.47
2023-05-14T08:11:44.872Z,97092.59
2023-05-14T08:14:12.460Z,97088.16
2023-05-14T08:16:41.490Z,97087.66
2023-05-14T08:19:09.253Z,97079.72
2023-05-14T08:21:37.009Z,97077.72
2023-05-14T08:24:05.484Z,97077.56
2023-05-14T08:26:33.417Z,97078.59
2023-05-14T08:29:01.129Z,97077.00
2023-05-14T08:31:30.050Z,97078.66
2023-05-14T08:33:59.182Z,97077.69
2023-05-14T08:36:26.890Z,97076.06
2023-05-14T08:38:56.128Z,97081.78
2023-05-14T08:41:24.079Z,97070.66
2023-05-14T08:44:00.559Z,97059.53
2023-05-14T08:46:30.744Z,97064.09
2023-05-14T08:49:08.672Z,97061.38
2023-05-14T08:51:36.886Z,97052.09
2023-05-14T08:54:05.880Z,97047.06
2023-05-14T08:56:33.757Z,97048.88
2023-05-14T08:59:01.462Z,97050.47
2023-05-14T09:01:29.710Z,97054.97
2023-05-14T09:04:02.717Z,97051.13
2023-05-14T09:06:31.183Z,97048.97
2023-05-14T09:08:58.874Z,97043.69
2023-05-14T09:11:26.808Z,97041.28
2023-05-14T09:13:55.600Z,97045.19
2023-05-14T09:16:27.801Z,97041.81
2023-05-14T09:18:55.461Z,97034.78
2023-05-14T09:21:27.963Z,97042.44
2023-05-14T09:23:57.535Z,97036.53
2023-05-14T09:26:26.324Z,97035.91
2023-05-14T09:28:54.713Z,97031.53
2023-05-14T09:31:23.213Z,97032.31
2023-05-14T09:33:51.298Z,97029.16
2023-05-14T09:36:19.833Z,97033.81
2023-05-14T09:38:50.807Z,97021.88
2023-05-14T09:41:18.445Z,97040.75
2023-05-14T09:43:46.124Z,97038.22
2023-05-14T09:46:14.480Z,97031.91
2023-05-14T09:48:42.482Z,97032.03
2023-05-14T09:51:10.420Z,97033.34
2023-05-14T09:53:38.738Z,97032.75
2023-05-14T09:56:08.979Z,97028.91
2023-05-14T09:58:36.800Z,97020.53
2023-05-14T10:01:09.078Z,97020.78
2023-05-14T10:03:37.132Z,97016.41
2023-05-14T10:06:06.910Z,97025.09
2023-05-14T10:08:38.689Z,97027.78
2023-05-14T10:11:13.519Z,97025.22
2023-05-14T10:13:46.260Z,97023.25
2023-05-14T10:16:19.699Z,97015.81
2023-05-14T10:18:53.536Z,97035.41
2023-05-14T10:21:23.571Z,97033.75
2023-05-14T10:23:52.649Z,97035.38
2023-05-14T10:26:24.086Z,97021.84
2023-05-14T10:28:51.945Z,97026.31
2023-05-14T10:31:23.177Z,97015.63
2023-05-14T10:33:50.978Z,97017.69
2023-05-14T10:36:18.715Z,97016.03
2023-05-14T10:38:47.023Z,97020.97
2023-05-14T10:41:16.260Z,97016.97
2023-05-14T10:43:45.351Z,97021.41
2023-05-14T10:46:14.393Z,97024.91
2023-05-14T10:48:43.994Z,97035.03
2023-05-14T10:51:12.495Z,97025.06
2023-05-14T10:53:43.608Z,97014.31
2023-05-14T10:56:13.463Z,97011.81
2023-05-14T10:58:44.986Z,97004.91
2023-05-14T11:01:13.750Z,97004.03
2023-05-14T11:03:43.271Z,97004.19
2023-05-14T11:06:12.978Z,96995.06
2023-05-14T11:08:41.041Z,96991.75
2023-05-14T11:11:09.771Z,96991.09
2023-05-14T11:13:37.811Z,96988.72
2023-05-14T11:16:22.581Z,97000.09
2023-05-14T11:19:01.234Z,96992.84
2023-05-14T11:21:29.082Z,96992.78
2023-05-14T11:24:00.058Z,96984.00
2023-05-14T11:26:27.988Z,96988.09
2023-05-14T11:28:55.941Z,96974.94
2023-05-14T11:31:27.883Z,96978.97
2023-05-14T11:33:55.809Z,96973.69
2023-05-14T11:36:23.365Z,96981.38
2023-05-14T11:38:51.948Z,96978.72
2023-05-14T11:41:19.884Z,96967.97
2023-05-14T11:43:48.076Z,96972.19
2023-05-14T11:46:18.940Z,96977.41
2023-05-14T11:48:48.288Z,96971.28
2023-05-14T11:51:16.093Z,96977.31
2023-05-14T11:53:46.455Z,96967.88
2023-05-14T11:56:15.590Z,96966.41
2023-05-14T11:58:48.234Z,96973.88
2023-05-14T12:01:15.978Z,96976.81
2023-05-14T12:03:43.892Z,96969.47
2023-05-14T12:06:14.506Z,96979.03
2023-05-14T12:08:47.628Z,96968.06
2023-05-14T12:11:15.260Z,96956.06
2023-05-14T12:13:42.900Z,96959.03
2023-05-14T12:16:15.164Z,96951.19
2023-05-14T12:18:43.474Z,96950.34
2023-05-14T12:21:11.578Z,96944.34
2023-05-14T12:23:45.281Z,96941.94
2023-05-14T12:26:14.587Z,96943.75
2023-05-14T12:28:42.249Z,96956.91
2023-05-14T12:31:11.308Z,96952.09
2023-05-14T12:33:39.032Z,96954.41
2023-05-14T12:38:37.732Z,96961.09
2023-05-14T12:41:07.061Z,96967.56
2023-05-14T12:43:34.829Z,96973.81
2023-05-14T12:46:02.577Z,96973.38
2023-05-14T12:48:31.673Z,96959.00
2023-05-14T12:51:00.689Z,96960.56
2023-05-14T12:53:28.269Z,96948.31
2023-05-14T12:55:55.961Z,96949.75
2023-05-14T12:58:24.879Z,96935.72
2023-05-14T13:00:52.803Z,96935.13
2023-05-14T13:03:20.786Z,96932.00
2023-05-14T13:05:48.802Z,96925.22
2023-05-14T13:08:16.446Z,96931.69
2023-05-14T13:10:44.303Z,96923.47
2023-05-14T13:13:12.172Z,96920.81
2023-05-14T13:15:42.368Z,96907.28
2023-05-14T13:18:10.363Z,96913.22
2023-05-14T13:20:41.277Z,96912.13
2023-05-14T13:23:11.955Z,96913.34
2023-05-14T13:25:39.773Z,96903.63
2023-05-14T13:28:07.885Z,96907.91
2023-05-14T13:30:36.589Z,96906.81
2023-05-14T13:33:07.016Z,96897.44
2023-05-14T13:35:34.782Z,96901.19
2023-05-14T13:38:02.456Z,96905.94
2023-05-14T13:40:30.086Z,96904.44
2023-05-14T13:43:01.489Z,96906.97
2023-05-14T13:45:29.066Z,96897.66
2023-05-14T13:47:56.948Z,96901.50
2023-05-14T13:50:26.249Z,96899.19
2023-05-14T13:52:54.098Z,96897.34
2023-05-14T13:55:21.814Z,96893.06
2023-05-14T13:57:50.215Z,96890.22
2023-05-14T14:00:18.680Z,96880.97
2023-05-14T14:02:46.383Z,96887.69
2023-05-14T14:05:14.224Z,96888.19
2023-05-14T14:07:43.230Z,96884.09
2023-05-14T14:10:11.050Z,96889.94
2023-05-14T14:12:38.827Z,96889.88
2023-05-14T14:15:07.854Z,96885.75
2023-05-14T14:17:35.490Z,96890.16
2023-05-14T14:20:03.363Z,96884.19
2023-05-14T14:22:31.725Z,96883.69
2023-05-14T14:25:03.712Z,96870.53
2023-05-14T14:27:33.785Z,96874.56
2023-05-14T14:30:01.882Z,96872.75
2023-05-14T14:32:29.482Z,96877.19
2023-05-14T14:34:57.173Z,96871.88
2023-05-14T14:37:24.858Z,96871.63
2023-05-14T14:39:52.466Z,96860.72
2023-05-14T14:42:21.571Z,96872.31
2023-05-14T14:44:50.261Z,96867.25
2023-05-14T14:47:17.946Z,96873.66
2023-05-14T14:49:45.897Z,96870.03
2023-05-14T14:52:13.569Z,96870.88
2023-05-14T14:54:41.639Z,96870.91
2023-05-14T14:57:09.231Z,96862.00
2023-05-14T14:59:38.242Z,96857.00
2023-05-14T15:02:06.069Z,96851.06
2023-05-14T15:04:33.987Z,96854.53
2023-05-14T15:07:02.180Z,96862.22
2023-05-14T15:09:30.072Z,96857.09
2023-05-14T15:11:57.870Z,96865.34
2023-05-14T15:14:25.529Z,96861.94
2023-05-14T15:16:54.772Z,96862.31
2023-05-14T15:19:22.672Z,96871.25
2023-05-14T15:21:50.367Z,96861.03
2023-05-14T15:24:17.935Z,96863.38
2023-05-14T15:26:45.616Z,96870.06
2023-05-14T15:29:13.238Z,96868.09
2023-05-14T15:31:40.860Z,96875.28
2023-05-14T15:34:09.974Z,96871.34
2023-05-14T15:36:37.643Z,96868.97
2023-05-14T15:39:05.216Z,96875.19
2023-05-14T15:41:32.989Z,96876.00
2023-05-14T15:44:00.626Z,96876.88
2023-05-14T15:46:28.217Z,96875.78
2023-05-14T15:48:56.018Z,96876.97
2023-05-14T15:51:25.064Z,96877.94
2023-05-14T15:53:55.571Z,96880.66
2023-05-14T15:56:23.235Z,96877.03
2023-05-14T15:58:50.948Z,96882.25
2023-05-14T16:01:18.704Z,96887.75
2023-05-14T16:03:46.782Z,96886.50
2023-05-14T16:06:15.038Z,96892.66
2023-05-14T16:08:44.437Z,96894.44
2023-05-14T16:11:12.087Z,96891.00
2023-05-14T16:13:40.695Z,96897.72
2023-05-14T16:16:08.617Z,96900.69
2023-05-14T16:18:37.318Z,96888.94
2023-05-14T16:21:04.982Z,96885.41
2023-05-14T16:23:32.550Z,96886.75
2023-05-14T16:26:01.534Z,96886.50
2023-05-14T16:28:29.224Z,96880.78
2023-05-14T16:31:03.474Z,96882.94
2023-05-14T16:33:31.512Z,96879.72
2023-05-14T16:35:59.178Z,96876.16
2023-05-14T16:38:26.879Z,96878.09
2023-05-14T16:40:54.461Z,96883.22
2023-05-14T16:43:25.824Z,96895.66
2023-05-14T16:45:54.661Z,96916.72
2023-05-14T16:48:22.265Z,96913.59
2023-05-14T16:50:50.042Z,96921.50
2023-05-14T16:53:17.622Z,96928.56
2023-05-14T16:55:45.287Z,96919.22
2023-05-14T16:58:13.049Z,96923.59
2023-05-14T17:00:42.077Z,96925.88
2023-05-14T17:03:09.693Z,96927.88
2023-05-14T17:05:37.878Z,96930.84
2023-05-14T17:08:06.696Z,96923.47
2023-05-14T17:10:34.651Z,96928.59
2023-05-14T17:13:02.954Z,96932.00
2023-05-14T17:15:30.704Z,96932.56
2023-05-14T17:17:59.729Z,96946.94
2023-05-14T17:20:28.178Z,96942.28
2023-05-14T17:22:55.838Z,96944.81
2023-05-14T17:25:23.592Z,96949.69
2023-05-14T17:27:51.710Z,96953.41
2023-05-14T17:30:19.537Z,96940.19
2023-05-14T17:32:49.059Z,96951.53
2023-05-14T17:35:19.806Z,96960.84
2023-05-14T17:37:47.398Z,96958.94
2023-05-14T17:40:15.100Z,96955.31
2023-05-14T17:42:42.656Z,96952.94
2023-05-14T17:45:11.116Z,96959.31
2023-05-14T17:47:39.212Z,96956.28
2023-05-14T17:50:08.796Z,96958.00
2023-05-14T17:52:37.785Z,96950.41
2023-05-14T17:55:05.846Z,96958.28
2023-05-14T17:57:35.029Z,96958.44
2023-05-14T18:00:02.910Z,96953.78
2023-05-14T18:02:30.818Z,96961.78
2023-05-14T18:04:58.730Z,96961.00
2023-05-14T18:07:26.570Z,96970.75
2023-05-14T18:09:57.982Z,96969.06
2023-05-14T18:12:25.679Z,96970.25
2023-05-14T18:14:53.588Z,96963.69
2023-05-14T18:17:21.428Z,96970.78
2023-05-14T18:19:49.110Z,96978.97
2023-05-14T18:22:16.791Z,96980.41
2023-05-14T18:24:45.109Z,96980.72
2023-05-14T18:27:14.448Z,96990.63
2023-05-14T18:29:42.089Z,96990.34
2023-05-14T18:32:09.880Z,96992.09
2023-05-14T18:34:47.778Z,96991.44
2023-05-14T18:37:15.741Z,96998.88
2023-05-14T18:39:43.373Z,97005.84
2023-05-14T18:42:11.230Z,97011.38
2023-05-14T18:44:40.170Z,97000.19
2023-05-14T18:47:07.902Z,97000.47
2023-05-14T18:49:35.671Z,96998.28
2023-05-14T18:52:03.518Z,97012.03
2023-05-14T18:54:31.097Z,97018.75
2023-05-14T18:56:59.737Z,97018.44
2023-05-14T18:59:27.538Z,97020.09
2023-05-14T19:01:56.773Z,97024.25
2023-05-14T19:04:25.076Z,97029.97
2023-05-14T19:06:52.848Z,97021.66
2023-05-14T19:09:24.083Z,97014.38
2023-05-14T19:11:54.934Z,97032.84
2023-05-14T19:14:22.581Z,97045.09
2023-05-14T19:16:50.659Z,97045.50
2023-05-14T19:19:20.399Z,97065.38
2023-05-14T19:21:48.005Z,97076.06
2023-05-14T19:24:17.221Z,97079.16
2023-05-14T19:26:44.993Z,97089.09
2023-05-14T19:29:12.672Z,97086.00
2023-05-14T19:31:40.336Z,97100.94
2023-05-14T19:34:07.932Z,97103.94
2023-05-14T19:36:36.914Z,97099.28
2023-05-14T19:39:04.865Z,97106.16
2023-05-14T19:41:32.504Z,97111.13
2023-05-14T19:44:00.699Z,97121.75
2023-05-14T19:46:28.403Z,97119.78
2023-05-14T19:48:56.113Z,97129.22
2023-05-14T19:51:23.740Z,97136.81
2023-05-14T19:53:52.845Z,97132.69
2023-05-14T19:56:20.789Z,97137.00
2023-05-14T19:58:48.426Z,97133.22
2023-05-14T20:01:16.298Z,97138.66
2023-05-14T20:03:44.037Z,97136.00
2023-05-14T20:06:12.073Z,97136.88
2023-05-14T20:08:40.010Z,97134.22
2023-05-14T20:11:09.107Z,97131.97
2023-05-14T20:13:37.303Z,97136.81
2023-05-14T20:16:05.708Z,97132.84
2023-05-14T20:18:33.685Z,97139.47
2023-05-14T20:21:01.576Z,97144.41
2023-05-14T20:23:29.464Z,97138.53
2023-05-14T20:25:57.176Z,97135.97
2023-05-14T20:28:26.159Z,97131.34
2023-05-14T20:30:54.151Z,97139.44
2023-05-14T20:33:21.831Z,97141.03
2023-05-14T20:35:49.524Z,97150.97
2023-05-14T20:38:17.127Z,97143.72
2023-05-14T20:40:44.832Z,97139.47
2023-05-14T20:43:12.698Z,97137.81
2023-05-14T20:45:42.087Z,97135.66
2023-05-14T20:48:09.967Z,97127.56
2023-05-14T20:50:40.075Z,97133.66
2023-05-14T20:53:07.831Z,97123.59
2023-05-14T20:55:35.819Z,97132.50
2023-05-14T20:58:03.516Z,97133.22
2023-05-14T21:00:31.227Z,97127.09
2023-05-14T21:03:00.564Z,97126.97
2023-05-14T21:05:28.441Z,97120.97
2023-05-14T21:07:56.073Z,97121.75
2023-05-14T21:10:31.320Z,97127.56
2023-05-14T21:12:58.944Z,97122.78
2023-05-14T21:15:27.124Z,97122.16
2023-05-14T21:17:55.184Z,97121.34
2023-05-14T21:20:25.206Z,97114.34
2023-05-14T21:22:54.586Z,97119.78
2023-05-14T21:25:22.477Z,97113.47
2023-05-14T21:27:50.377Z,97108.88
2023-05-14T21:30:18.620Z,97113.72
2023-05-14T21:32:46.215Z,97109.31
2023-05-14T21:35:14.072Z,97106.66
2023-05-14T21:37:43.287Z,97110.50
2023-05-14T21:40:11.999Z,97107.06
2023-05-14T21:42:41.984Z,97113.06
2023-05-14T21:45:10.358Z,97112.38
2023-05-14T21:47:38.215Z,97108.97
2023-05-14T21:50:06.934Z,97113.69
2023-05-14T21:52:34.544Z,97104.53
2023-05-14T21:55:04.028Z,97096.78
2023-05-14T21:57:34.284Z,97094.47
2023-05-14T22:00:02.443Z,97096.44
2023-05-14T22:02:30.342Z,97100.00
2023-05-14T22:04:57.986Z,97099.63
2023-05-14T22:07:26.234Z,97094.28
2023-05-14T22:09:53.831Z,97097.09
2023-05-14T22:12:22.780Z,97103.28
2023-05-14T22:14:52.706Z,97097.50
2023-05-14T22:17:20.647Z,97093.13
2023-05-14T22:19:48.260Z,97098.91
2023-05-14T22:22:17.008Z,97096.72
2023-05-14T22:24:45.049Z,97096.00
2023-05-14T22:27:12.792Z,97095.06
2023-05-14T22:29:42.967Z,97098.97
2023-05-14T22:32:10.693Z,97095.97
2023-05-14T22:34:38.413Z,97100.56
2023-05-14T22:37:06.263Z,97096.00
2023-05-14T22:39:34.023Z,97097.91
2023-05-14T22:42:03.030Z,97112.06
2023-05-14T22:44:30.676Z,97112.78
2023-05-14T22:46:59.803Z,97120.06
2023-05-14T22:49:27.503Z,97115.88
2023-05-14T22:51:55.184Z,97112.06
2023-05-14T22:54:23.047Z,97112.06
2023-05-14T22:56:51.126Z,97112.06
2023-05-14T22:59:20.209Z,97104.41
2023-05-14T23:01:49.295Z,97104.38
2023-05-14T23:04:18.264Z,97097.28
2023-05-14T23:06:46.168Z,97097.31
2023-05-14T23:09:14.003Z,97104.53
2023-05-14T23:11:41.702Z,97090.00
2023-05-14T23:14:09.400Z,97099.16
2023-05-14T23:16:37.288Z,97092.13
2023-05-14T23:19:05.139Z,97083.03
2023-05-14T23:21:34.334Z,97080.88
2023-05-14T23:24:02.006Z,97081.38
2023-05-14T23:26:29.956Z,97072.78
2023-05-14T23:28:57.665Z,97076.81
2023-05-14T23:31:25.506Z,97089.66
2023-05-14T23:33:53.134Z,97092.19
2023-05-14T23:36:20.898Z,97096.00
2023-05-14T23:38:50.007Z,97093.66
2023-05-14T23:41:17.663Z,97094.47
2023-05-14T23:43:45.335Z,97088.34
2023-05-14T23:46:13.246Z,97083.66
2023-05-14T23:48:41.099Z,97076.03
2023-05-14T23:51:08.721Z,97072.22
2023-05-14T23:53:36.362Z,97083.72
2023-05-14T23:56:06.073Z,97077.94
2023-05-14T23:58:33.837Z,97084.38
